map of CFS home
CFS - Airport
Location
City:  Coffs Harbour, New South Wales, Australia
Name:Coffs Harbour Regional Airport
ICAO:YCFS
IATA:CFS

Details
Type:Airport (Aerodrome, Airfield)
Use:Public/Civil
Latitude:3019'14"S (-30.320555)
Longitude:15306'59"E (153.116389)
Datum:WGS 1984
Elevation:18 ft (5 m)
Variation:11.92E (WMM2015 magnetic declination)
0.01 annual change
Runways:2
Longest:6824 × 148 ft (2080 × 45 m), paved

Time
Time Zone:UTC+10 (DST+11)
Local Time:

Weather
METAR:YCFS 161503Z AUTO 05009KT 5000 // SCT008 SCT015 BKN022 19/18 Q1018
TAF:YCFS 161136Z 1612/1712 09010KT 9999 -SHRA SCT010 BKN016
FM161300 05010KT 9999 -SHRA SCT010 BKN015
FM170000 06013KT 9999 -SHRA SCT010 BKN018
TEMPO 1612/1706 3000 SHRA BKN006 INTER 1706/1712 4000 SHRA BKN010

Related Locations
Nearby:
Farthest:SMA: 11962 mi / 19250 km
Santa Maria, 20, PT

Find:

   beyond  
but within

Other Information
Maps:
NOTAMs:
Links:
Sources:

  
  • flag of Australia
  • flag of New South Wales
  

Sectional Chart

Flight Planning
at skyvector.com

Satellite Image

Google Maps Satellite view

 

Copyright © 2004-2018 Karl L. Swartz. All rights reserved.
The Great Circle Mapper name and logo are trademarks of the Great Circle Mapper.
All other trademarks mentioned herein belong to their respective owners.
Please see credits for attibutions and further copyright information.

  Follow gcmap on Facebook Follow gcmap on Twitter Follow gcmap on Google+ GCmap on LinkedIn

hCard Microformat

Geo Microformat